Laguna Beach, CA

7:38 AM PDT on September 23, 2014 (GMT -0700)
El Niguel Heights | Change Station
CLOSE
Current Station
Personal Weather Station
Location: Laguna Niguel, CA
Elevation: 470 ft
Nearby Weather Stations

Elev 470 ft 33.51 °N, 117.71 °W | Updated 1 minute ago

Overcast
Overcast
63.6 °F
Feels Like 63.6 °F
N
0.0
Wind Variable Wind from NW
Gusts 0.0 mph

Today
High -- | Low -- °F
--% Chance of Precip.
Yesterday
High -- | Low -- °F
Precip. -- in
6:39 AM 6:46 PM
Waning Crescent, 0% visible
Pressure 29.96 in
Visibility 1.0 miles
Clouds Overcast 200 ft
Dew Point 64 °F
Humidity 100%
Rainfall 0.00 in
Snow Depth 3 in , 1 in , 0 in
UV 0.0 out of 12
Pollen 5.70 out of 12
Air Quality Not available.
Flu Activity Not available.
SPECI KSNA 231412Z 00000KT 1SM BR OVC002 19/17 A2996 RMK AO2 RVRNO

More Conditions Fewer Conditions

Pressure 29.96 in
Visibility 1.0 miles
Clouds Overcast 200 ft
Dew Point 64 °F
Humidity 100%
Rainfall 0.00 in
Snow Depth 3 in , 1 in , 0 in
UV 0.0 out of 12
Pollen 5.70 out of 12
Air Quality Not available.
Flu Activity Not available.
SPECI KSNA 231412Z 00000KT 1SM BR OVC002 19/17 A2996 RMK AO2 RVRNO

More Conditions Fewer Conditions

10-Day Weather Forecast

Almanac

Astronomy

Sep. 23, 2014 Rise Set
Actual Time 6:39 AM PDT 6:46 PM PDT
Civil Twilight 6:14 AM PDT 7:10 PM PDT
Nautical Twilight 5:45 AM PDT 7:39 PM PDT
Astronomical Twilight 5:16 AM PDT 8:08 PM PDT
Moon 6:08 AM PDT 6:28 PM PDT
Length of Visible Light 12h 55m
Length of Day
12h 06m
Tomorrow will be 2m 4s shorter.
Waning Crescent, 0% of the Moon is Illuminated
Today
Waning Crescent
Sep 24
New
Oct 1
First Quarter
Oct 8
Full
Oct 15
Last Quarter

Today's Extremes

State Highs State Lows

Community

WunderPhotos

Upload Photos

1,755,707 photos uploaded!

Nearby

Air Quality

  Air Quality AQ Index Pollutant
Yesterday Good
OZONE
Tuesday Good
PM10
Tuesday Good
OZONE
Tuesday Good
CO
Tuesday Good
NO2

Snow Depth

Station Depth Elevation
CSS Lab 3 in 6900 ft
Summit Meadow 1 in 9122 ft
Hagan's Meadow 0 in 8000 ft
Sonora Pass 0 in 8800 ft
Forestdale Creek 0 in 8029 ft

Earthquake Activity

City Distance Mag. Time & Date
Big Bear Lake, California 65 miles 2.5 7:26 AM PDT
2014-09-22
Borrego Springs, California 78 miles 2.6 7:34 AM PDT
2014-09-21
Minimum magnitude displayed is 2.5.

Coastal Water Temperatures

Place Temperature
Santa Monica Pier 70.0 °F
Los Angeles, CA 66.9 °F
La Jolla, CA 64.9 °F

Nearby Weather Stations